RYR81YQ EIDW-LPPR
Flight info
| Callsign | RYR81YQ |
|---|---|
| Flight time | N/A |
| Altitude | 37000 |
| Route | PESIT4E PESIT DCT BAKUR DCT GUBJE DCT GISOK DCT TACQI DCT MANIG DCT BADUR DCT KORER UM616 TERPO/N0433F350 UN872 ERIGA UZ218 FUJTI DCT ATLEN DCT INSID T326 ASPOR |
| Aircraft | B738/M-SDE2E3FGHIRWXY/LB1 |
Departure
| Time | 2026-04-30 15:03 |
|---|---|
| Airport | Dublin Airport (EIDW) |
Arrival
| Time | N/A |
|---|---|
| Airport | Francisco de Sá Carneiro Airport (LPPR) |
| Time | Latitude | Longitude | Altitude | Speed | Heading |
|---|---|---|---|---|---|
| 2026-04-30 14:40 | 53.42999 | -6.24814 | 251 ft | 0 kts | 5° |
| 2026-04-30 14:52 | 53.42992 | -6.24815 | 251 ft | 2 kts | 4° |
| 2026-04-30 14:53 | 53.42963 | -6.24819 | 251 ft | 0 kts | 5° |
| 2026-04-30 14:53 | 53.42953 | -6.24820 | 251 ft | 2 kts | 338° |
| 2026-04-30 14:54 | 53.42940 | -6.24792 | 251 ft | 1 kts | 270° |
| 2026-04-30 14:54 | 53.42940 | -6.24783 | 251 ft | 0 kts | 275° |
| 2026-04-30 14:57 | 53.42940 | -6.24808 | 251 ft | 5 kts | 263° |
| 2026-04-30 14:57 | 53.42857 | -6.24981 | 251 ft | 13 kts | 227° |
| 2026-04-30 14:58 | 53.42718 | -6.25192 | 251 ft | 17 kts | 225° |
| 2026-04-30 14:58 | 53.42631 | -6.25341 | 251 ft | 17 kts | 226° |
| 2026-04-30 14:58 | 53.42464 | -6.25625 | 251 ft | 18 kts | 227° |
| 2026-04-30 14:59 | 53.42267 | -6.26006 | 251 ft | 21 kts | 253° |
| 2026-04-30 15:00 | 53.42295 | -6.26788 | 251 ft | 23 kts | 274° |
| 2026-04-30 15:00 | 53.42324 | -6.27320 | 251 ft | 22 kts | 276° |
| 2026-04-30 15:01 | 53.42351 | -6.27825 | 251 ft | 21 kts | 276° |
| 2026-04-30 15:01 | 53.42365 | -6.28073 | 251 ft | 20 kts | 275° |
| 2026-04-30 15:01 | 53.42284 | -6.28294 | 251 ft | 11 kts | 139° |
| 2026-04-30 15:02 | 53.42217 | -6.28267 | 251 ft | 8 kts | 187° |
| 2026-04-30 15:02 | 53.42202 | -6.28243 | 251 ft | 4 kts | 95° |
| 2026-04-30 15:03 | 53.42033 | -6.25224 | 352 ft | 164 kts | 96° |
| 2026-04-30 15:03 | 53.41794 | -6.21684 | 1869 ft | 157 kts | 101° |
| 2026-04-30 15:04 | 53.41591 | -6.17831 | 2841 ft | 180 kts | 99° |
| 2026-04-30 15:04 | 53.41206 | -6.10855 | 4328 ft | 224 kts | 100° |
| 2026-04-30 15:05 | 53.37989 | -6.05962 | 6107 ft | 248 kts | 175° |
| 2026-04-30 15:06 | 53.34568 | -6.05511 | 7706 ft | 249 kts | 168° |
| 2026-04-30 15:06 | 53.31148 | -6.04447 | 9209 ft | 254 kts | 166° |
| 2026-04-30 15:07 | 53.27668 | -6.03288 | 10638 ft | 260 kts | 166° |
| 2026-04-30 15:07 | 53.23924 | -6.02069 | 11490 ft | 290 kts | 167° |
| 2026-04-30 15:08 | 53.19880 | -6.00777 | 12791 ft | 302 kts | 167° |
| 2026-04-30 15:08 | 53.13629 | -5.98789 | 15057 ft | 312 kts | 167° |
| 2026-04-30 15:09 | 53.09334 | -5.97419 | 16506 ft | 319 kts | 167° |
| 2026-04-30 15:09 | 53.04953 | -5.96025 | 17828 ft | 326 kts | 167° |
| 2026-04-30 15:10 | 53.00477 | -5.94603 | 19093 ft | 334 kts | 167° |
| 2026-04-30 15:11 | 52.91120 | -5.91641 | 21359 ft | 352 kts | 168° |
| 2026-04-30 15:11 | 52.86255 | -5.90108 | 22426 ft | 361 kts | 168° |
| 2026-04-30 15:12 | 52.78812 | -5.87772 | 23081 ft | 363 kts | 168° |
| 2026-04-30 15:13 | 52.73862 | -5.86224 | 23082 ft | 362 kts | 168° |
| 2026-04-30 15:14 | 52.63965 | -5.83131 | 23079 ft | 363 kts | 168° |
| 2026-04-30 15:14 | 52.56554 | -5.80824 | 23075 ft | 364 kts | 168° |
| 2026-04-30 15:16 | 52.44231 | -5.77010 | 23068 ft | 361 kts | 167° |
| 2026-04-30 15:17 | 52.34413 | -5.73219 | 24171 ft | 366 kts | 162° |
| 2026-04-30 15:18 | 52.22130 | -5.66893 | 26708 ft | 379 kts | 159° |
| 2026-04-30 15:19 | 52.14748 | -5.61858 | 28054 ft | 388 kts | 156° |